Vega Nikolas — A8QD2 — position and weather

sailwx.info

Track history (hours):
 
Tides and Currents Weather Stations Pressure Air Temp Water Temp Dewpoint Dewpoint Depression Visibility Wind Speed Wind Dir Waves Ship Positions

Vega Nikolas

Last reported at 2014-Nov-13 02:16 UTC. Time now 2014-Nov-23 06:03 UTC.
Position N 40°29' W 073°54'.
Warning: this ship's position is 10 days out of date.

Length 139 m; draft 8.6 m.

Type: Ship (hazmat cat A). MMSI: 636091613.

Date/timePositionNaut miles runAvg speedWind from/ knotsBaromVisibWave heightAir tempDewpointWater temp
2014-Nov-13 02:16N 40°29' W 073°54'912.2
2014-Nov-13 01:33N 40°35' W 074°02'6 5.8
2014-Nov-13 00:32N 40°41' W 074°01'0 0.0
2014-Nov-12 23:32N 40°41' W 074°01'0 0.0
2014-Nov-12 22:32N 40°41' W 074°01'0 0.0
2014-Nov-12 21:33N 40°41' W 074°01'0 0.0
2014-Nov-12 20:32N 40°41' W 074°01'0 0.0
2014-Nov-12 19:29N 40°41' W 074°01'0 0.0
2014-Nov-12 18:32N 40°41' W 074°01'0 0.1
2014-Nov-12 17:32N 40°41' W 074°01'0 0.0
2014-Nov-12 16:33N 40°41' W 074°01'0 0.0
2014-Nov-12 15:33N 40°41' W 074°01'0 0.0
2014-Nov-12 14:33N 40°41' W 074°01'0 0.0
2014-Nov-12 13:33N 40°41' W 074°01'0 0.0
2014-Nov-12 12:33N 40°41' W 074°01'0 0.0
2014-Nov-12 11:33N 40°41' W 074°01'5 4.9
2014-Nov-12 10:33N 40°36' W 074°03'1010.0
2014-Nov-12 09:33N 40°29' W 073°54'8 8.4
2014-Nov-12 08:34N 40°24' W 073°44'9 8.9
2014-Nov-12 07:33N 40°19' W 073°35'1312.6
2014-Nov-12 06:33N 40°11' W 073°22'1514.6
2014-Nov-12 05:33N 40°01' W 073°08'1514.6
2014-Nov-12 04:33N 39°49' W 072°58'1514.6
2014-Nov-12 03:33N 39°37' W 072°47'1514.6
2014-Nov-12 02:33N 39°25' W 072°37'1514.6
2014-Nov-12 01:33N 39°12' W 072°27'1515.1
2014-Nov-12 00:33N 38°60' W 072°16'1815.3
2014-Nov-11 23:23N 38°44' W 072°06'  
Track history (hours):
 
Tides and Currents Weather Stations Pressure Air Temp Water Temp Dewpoint Dewpoint Depression Visibility Wind Speed Wind Dir Waves Ship Positions

Vega Nikolas

Last reported at 2014-Nov-13 02:16 UTC. Time now 2014-Nov-23 06:03 UTC.
Position N 40°29' W 073°54'.
Warning: this ship's position is 10 days out of date.

Length 139 m; draft 8.6 m.

Type: Ship (hazmat cat A). MMSI: 636091613.

Date/timePositionNaut miles runAvg speedWind from/ knotsBaromVisibWave heightAir tempDewpointWater temp
2014-Nov-13 02:16N 40°29' W 073°54'912.2
2014-Nov-13 01:33N 40°35' W 074°02'6 5.8
2014-Nov-13 00:32N 40°41' W 074°01'0 0.0
2014-Nov-12 23:32N 40°41' W 074°01'0 0.0
2014-Nov-12 22:32N 40°41' W 074°01'0 0.0
2014-Nov-12 21:33N 40°41' W 074°01'0 0.0
2014-Nov-12 20:32N 40°41' W 074°01'0 0.0
2014-Nov-12 19:29N 40°41' W 074°01'0 0.0
2014-Nov-12 18:32N 40°41' W 074°01'0 0.1
2014-Nov-12 17:32N 40°41' W 074°01'0 0.0
2014-Nov-12 16:33N 40°41' W 074°01'0 0.0
2014-Nov-12 15:33N 40°41' W 074°01'0 0.0
2014-Nov-12 14:33N 40°41' W 074°01'0 0.0
2014-Nov-12 13:33N 40°41' W 074°01'0 0.0
2014-Nov-12 12:33N 40°41' W 074°01'0 0.0
2014-Nov-12 11:33N 40°41' W 074°01'5 4.9
2014-Nov-12 10:33N 40°36' W 074°03'1010.0
2014-Nov-12 09:33N 40°29' W 073°54'8 8.4
2014-Nov-12 08:34N 40°24' W 073°44'9 8.9
2014-Nov-12 07:33N 40°19' W 073°35'1312.6
2014-Nov-12 06:33N 40°11' W 073°22'1514.6
2014-Nov-12 05:33N 40°01' W 073°08'1514.6
2014-Nov-12 04:33N 39°49' W 072°58'1514.6
2014-Nov-12 03:33N 39°37' W 072°47'1514.6
2014-Nov-12 02:33N 39°25' W 072°37'1514.6
2014-Nov-12 01:33N 39°12' W 072°27'1515.1
2014-Nov-12 00:33N 38°60' W 072°16'1815.3
2014-Nov-11 23:23N 38°44' W 072°06'  

Dump ship's entire track history